Time;durP1;ratioP1;P1;durP2;ratioP2;P2;SDS_P1;SDS_P2;PMS_P1;PMS_P2;Temp;Humidity;BMP_temperature;BMP_pressure;BME280_temperature;BME280_humidity;BME280_pressure;Samples;Min_cycle;Max_cycle;Signal;HPM_P1;HPM_P2
2023/08/10 00:01:09;;;;;;;14.27;3.58;;;;;;;13.08;100.00;100167.22;12211136;19;20018;-82
2023/08/10 00:05:11;;;;;;;6.75;2.80;;;;;;;13.08;100.00;100156.16;12219593;19;20033;-82
2023/08/10 00:09:13;;;;;;;7.77;3.00;;;;;;;13.07;100.00;100160.03;12201684;19;20010;-82
2023/08/10 00:13:15;;;;;;;9.55;2.95;;;;;;;13.08;100.00;100160.88;12182389;19;20010;-83
2023/08/10 00:17:17;;;;;;;7.23;3.67;;;;;;;13.07;100.00;100162.78;12200647;19;20047;-83
2023/08/10 00:21:19;;;;;;;10.23;3.05;;;;;;;13.08;100.00;100161.69;12203160;19;20470;-83
2023/08/10 00:25:21;;;;;;;8.90;2.70;;;;;;;13.07;100.00;100159.19;12180803;19;20193;-84
2023/08/10 00:29:24;;;;;;;4.95;2.92;;;;;;;13.06;100.00;100168.56;12202781;19;20014;-83
2023/08/10 00:33:25;;;;;;;4.53;2.60;;;;;;;13.04;100.00;100170.78;12202413;19;20023;-83
2023/08/10 00:37:34;;;;;;;6.35;3.28;;;;;;;12.99;100.00;100174.31;12180471;19;20437;-83
2023/08/10 00:41:36;;;;;;;3.88;2.50;;;;;;;12.96;100.00;100169.28;12202445;19;20099;-83
2023/08/10 00:45:39;;;;;;;9.93;3.40;;;;;;;12.92;100.00;100160.66;12197991;19;20799;-84
2023/08/10 00:49:40;;;;;;;8.23;3.25;;;;;;;12.92;100.00;100170.91;12179421;19;20556;-83
2023/08/10 00:53:43;;;;;;;8.45;2.90;;;;;;;12.88;100.00;100165.06;12200563;19;20019;-83
2023/08/10 00:57:45;;;;;;;15.95;3.35;;;;;;;12.87;100.00;100159.75;12200782;19;20028;-83
2023/08/10 01:01:46;;;;;;;9.40;3.20;;;;;;;12.84;100.00;100157.50;12189647;19;20015;-83
2023/08/10 01:06:17;;;;;;;6.75;3.28;;;;;;;12.83;100.00;100173.28;12216050;19;20030;-83
2023/08/10 01:10:26;;;;;;;6.28;3.53;;;;;;;12.81;100.00;100174.63;12206384;19;20013;-82
2023/08/10 01:14:49;;;;;;;7.93;2.60;;;;;;;12.78;100.00;100168.50;12241063;19;20009;-83
2023/08/10 01:18:52;;;;;;;6.53;2.90;;;;;;;12.78;100.00;100178.72;12248783;19;20042;-84
2023/08/10 01:23:02;;;;;;;7.75;3.20;;;;;;;12.75;100.00;100182.00;12223734;19;20022;-82
2023/08/10 01:27:05;;;;;;;11.00;3.45;;;;;;;12.71;100.00;100191.91;12251476;19;20006;-82
2023/08/10 01:31:06;;;;;;;7.43;3.20;;;;;;;12.71;100.00;100189.16;12229051;19;20006;-82
2023/08/10 01:35:10;;;;;;;15.38;3.20;;;;;;;12.73;100.00;100193.34;12251003;19;20011;-82
2023/08/10 01:39:12;;;;;;;7.47;3.38;;;;;;;12.78;100.00;100193.38;12252760;19;20035;-83
2023/08/10 01:43:14;;;;;;;5.85;3.50;;;;;;;12.87;100.00;100181.91;12207519;19;20026;-83
2023/08/10 01:47:28;;;;;;;9.10;3.22;;;;;;;13.00;100.00;100178.75;12214546;19;20022;-83
2023/08/10 01:51:31;;;;;;;7.28;2.88;;;;;;;13.11;100.00;100176.94;12212011;19;20090;-83
2023/08/10 01:55:34;;;;;;;4.82;3.17;;;;;;;13.24;100.00;100179.34;12192334;19;20478;-83
2023/08/10 01:59:35;;;;;;;7.72;3.75;;;;;;;13.35;100.00;100196.91;12212068;19;20018;-83
2023/08/10 02:03:37;;;;;;;5.65;2.63;;;;;;;13.44;100.00;100192.59;12211957;19;20018;-83
2023/08/10 02:07:41;;;;;;;8.00;3.15;;;;;;;13.51;100.00;100211.78;12189173;19;20010;-83
2023/08/10 02:11:43;;;;;;;13.07;2.97;;;;;;;13.57;100.00;100214.34;12207989;19;20022;-82
2023/08/10 02:15:45;;;;;;;10.55;3.13;;;;;;;13.62;100.00;100221.84;12210361;19;20011;-83
2023/08/10 02:19:46;;;;;;;6.25;3.10;;;;;;;13.65;100.00;100216.66;12184104;19;20478;-83
2023/08/10 02:23:48;;;;;;;6.78;3.03;;;;;;;13.68;100.00;100213.38;12210148;19;20010;-83
2023/08/10 02:27:50;;;;;;;8.02;2.95;;;;;;;13.71;100.00;100216.69;12210677;19;20011;-83
2023/08/10 02:31:52;;;;;;;11.23;2.90;;;;;;;13.69;100.00;100205.88;12187749;19;20011;-83
2023/08/10 02:35:54;;;;;;;5.90;3.53;;;;;;;13.63;100.00;100207.78;12198738;19;20010;-86
2023/08/10 02:39:55;;;;;;;3.35;2.30;;;;;;;13.55;100.00;100199.91;12209527;19;20003;-84
2023/08/10 02:43:57;;;;;;;6.63;3.03;;;;;;;13.49;100.00;100195.41;12185596;19;20022;-84
2023/08/10 02:47:59;;;;;;;11.98;2.95;;;;;;;13.44;100.00;100185.16;12201867;19;20031;-84
2023/08/10 02:52:01;;;;;;;10.40;3.40;;;;;;;13.42;100.00;100192.88;12192898;19;20010;-84
2023/08/10 02:56:04;;;;;;;7.25;3.00;;;;;;;13.40;100.00;100191.44;12207245;19;20039;-84
2023/08/10 03:00:06;;;;;;;7.07;3.87;;;;;;;13.40;100.00;100199.75;12204379;19;20017;-84
2023/08/10 03:04:08;;;;;;;12.10;3.45;;;;;;;13.34;100.00;100192.47;12185362;19;20011;-84
2023/08/10 03:08:10;;;;;;;6.20;3.85;;;;;;;13.27;100.00;100189.09;12208641;19;20790;-83
2023/08/10 03:12:12;;;;;;;7.13;4.10;;;;;;;13.17;100.00;100196.13;12237124;19;20014;-83
2023/08/10 03:16:14;;;;;;;11.07;3.57;;;;;;;13.13;100.00;100191.38;12194461;19;20591;-83
2023/08/10 03:20:19;;;;;;;8.98;3.70;;;;;;;13.08;100.00;100194.06;12203473;19;20014;-83
2023/08/10 03:24:21;;;;;;;9.88;3.08;;;;;;;13.03;100.00;100196.75;12200048;19;20830;-83
2023/08/10 03:28:23;;;;;;;8.90;3.58;;;;;;;12.99;100.00;100197.25;12180184;19;20042;-83
2023/08/10 03:32:27;;;;;;;7.25;4.20;;;;;;;12.99;100.00;100191.72;12200328;19;20011;-83
2023/08/10 03:36:29;;;;;;;5.40;3.30;;;;;;;12.98;100.00;100198.38;12199202;19;20007;-83
2023/08/10 03:40:31;;;;;;;6.95;3.00;;;;;;;12.99;100.00;100201.97;12181024;19;20002;-83
2023/08/10 03:44:33;;;;;;;9.43;3.70;;;;;;;12.96;100.00;100194.19;12201542;19;20014;-83
2023/08/10 03:48:35;;;;;;;8.23;3.35;;;;;;;12.94;100.00;100193.63;12199712;19;20035;-83
2023/08/10 03:52:37;;;;;;;14.20;3.70;;;;;;;12.92;100.00;100199.41;12179252;19;20511;-84
2023/08/10 03:56:39;;;;;;;8.48;3.75;;;;;;;12.91;100.00;100194.97;12201844;19;20007;-84
2023/08/10 04:00:44;;;;;;;9.65;3.47;;;;;;;12.91;100.00;100191.34;12201863;19;20015;-83
2023/08/10 04:04:48;;;;;;;9.70;3.17;;;;;;;12.91;100.00;100194.97;12179636;19;20039;-84
2023/08/10 04:08:50;;;;;;;5.13;3.00;;;;;;;12.94;100.00;100193.63;12197934;19;20039;-83
2023/08/10 04:12:52;;;;;;;8.82;3.90;;;;;;;12.97;100.00;100202.25;12200432;19;20007;-83
2023/08/10 04:16:54;;;;;;;8.33;3.07;;;;;;;13.02;100.00;100195.91;12178378;19;20022;-83
2023/08/10 04:20:56;;;;;;;6.95;4.00;;;;;;;13.05;100.00;100203.72;12204405;19;20047;-83
2023/08/10 04:24:58;;;;;;;3.70;2.50;;;;;;;13.07;100.00;100209.81;12199899;19;20042;-83
2023/08/10 04:29:00;;;;;;;12.87;3.50;;;;;;;13.11;100.00;100219.28;12174537;19;20010;-83
2023/08/10 04:33:03;;;;;;;6.95;3.33;;;;;;;13.21;100.00;100221.38;12198039;19;20690;-83
2023/08/10 04:37:06;;;;;;;5.30;3.20;;;;;;;13.36;100.00;100221.59;12186748;19;20017;-82
2023/08/10 04:41:08;;;;;;;;;;;;;;;13.52;100.00;100219.00;12214170;19;20083;-82
2023/08/10 04:45:10;;;;;;;8.40;3.53;;;;;;;13.65;100.00;100222.19;12206228;19;19942;-83
2023/08/10 04:49:12;;;;;;;13.38;3.40;;;;;;;13.74;100.00;100233.66;12187527;19;20002;-83
2023/08/10 04:53:13;;;;;;;6.55;2.90;;;;;;;13.82;100.00;100235.09;12215809;19;20501;-82
2023/08/10 04:57:15;;;;;;;6.57;3.10;;;;;;;13.89;100.00;100238.47;12210144;19;20015;-83
2023/08/10 05:01:17;;;;;;;5.70;3.22;;;;;;;13.96;100.00;100230.81;12188756;19;20027;-83
2023/08/10 05:05:20;;;;;;;5.30;3.38;;;;;;;14.05;100.00;100243.09;12212112;19;20098;-83
2023/08/10 05:09:23;;;;;;;7.53;2.97;;;;;;;14.10;100.00;100239.56;12209656;19;20014;-83
2023/08/10 05:13:25;;;;;;;9.30;3.35;;;;;;;14.21;100.00;100240.47;12186978;19;20010;-84
2023/08/10 05:17:26;;;;;;;5.55;3.05;;;;;;;14.33;100.00;100246.66;12206211;19;20513;-84
2023/08/10 05:21:28;;;;;;;9.52;3.17;;;;;;;14.45;100.00;100247.31;12208735;19;20018;-84
2023/08/10 05:25:30;;;;;;;7.70;3.63;;;;;;;14.57;100.00;100259.13;12185500;19;20710;-83
2023/08/10 05:29:32;;;;;;;6.18;3.17;;;;;;;14.69;100.00;100250.56;12206162;19;20583;-84
2023/08/10 05:33:34;;;;;;;10.88;5.25;;;;;;;14.81;100.00;100261.47;12208520;19;20023;-85
2023/08/10 05:37:36;;;;;;;7.30;3.65;;;;;;;14.94;100.00;100260.19;12184989;19;20203;-84
2023/08/10 05:41:38;;;;;;;;;;;;;;;15.07;100.00;100261.66;12213331;19;20042;-85
2023/08/10 05:45:40;;;;;;;14.52;3.90;;;;;;;15.19;100.00;100263.09;12207595;19;19915;-84
2023/08/10 05:49:42;;;;;;;9.13;4.03;;;;;;;15.31;100.00;100268.44;12183702;19;20094;-84
2023/08/10 05:53:44;;;;;;;10.00;4.47;;;;;;;15.46;100.00;100262.94;12205224;19;20010;-83
2023/08/10 05:57:45;;;;;;;8.20;4.55;;;;;;;15.60;100.00;100265.25;12205170;19;20480;-84
2023/08/10 06:01:47;;;;;;;10.18;4.45;;;;;;;15.71;100.00;100267.00;12184655;19;20074;-83
2023/08/10 06:05:49;;;;;;;7.00;3.72;;;;;;;15.83;100.00;100267.56;12207296;19;21456;-83
2023/08/10 06:09:51;;;;;;;7.83;3.87;;;;;;;15.95;100.00;100265.38;12204583;19;20402;-84
2023/08/10 06:13:53;;;;;;;7.78;4.18;;;;;;;16.04;100.00;100273.19;12183288;19;20007;-83
2023/08/10 06:17:55;;;;;;;9.93;4.50;;;;;;;16.08;100.00;100279.84;12203080;19;20010;-84
2023/08/10 06:21:57;;;;;;;17.33;4.50;;;;;;;16.17;100.00;100272.66;12208778;19;20006;-83
2023/08/10 06:26:00;;;;;;;11.63;4.40;;;;;;;16.35;100.00;100272.09;12182126;19;20002;-83
2023/08/10 06:30:03;;;;;;;12.07;5.15;;;;;;;16.52;100.00;100280.19;12201614;19;20017;-83
2023/08/10 06:34:05;;;;;;;6.50;3.88;;;;;;;16.72;100.00;100278.53;12182655;19;20094;-84
2023/08/10 06:38:07;;;;;;;7.75;3.70;;;;;;;16.80;100.00;100277.97;12205158;19;20038;-83
2023/08/10 06:42:09;;;;;;;9.25;4.15;;;;;;;16.81;100.00;100280.50;12204572;19;20006;-83
2023/08/10 06:46:12;;;;;;;6.65;3.25;;;;;;;16.77;100.00;100292.44;12217190;19;20015;-83
2023/08/10 06:50:14;;;;;;;8.45;4.00;;;;;;;16.62;100.00;100291.31;12230595;19;20018;-84
2023/08/10 06:54:16;;;;;;;8.70;3.93;;;;;;;16.56;100.00;100297.16;12208556;19;20034;-84
2023/08/10 06:58:18;;;;;;;9.43;4.40;;;;;;;16.58;100.00;100297.72;12182697;19;20465;-85
2023/08/10 07:02:23;;;;;;;6.57;4.45;;;;;;;16.50;100.00;100296.31;12205972;19;20088;-84
2023/08/10 07:06:26;;;;;;;7.93;4.23;;;;;;;16.59;100.00;100303.00;12207527;19;20354;-84
2023/08/10 07:10:28;;;;;;;6.85;4.18;;;;;;;16.83;100.00;100300.50;12181113;19;20031;-84
2023/08/10 07:14:34;;;;;;;9.68;4.88;;;;;;;17.06;100.00;100299.09;12203486;19;20011;-84
2023/08/10 07:18:35;;;;;;;7.07;4.47;;;;;;;17.26;100.00;100303.78;12201643;19;20175;-84
2023/08/10 07:22:37;;;;;;;7.72;3.70;;;;;;;17.56;100.00;100304.81;12185709;19;20073;-85
2023/08/10 07:26:42;;;;;;;7.68;3.03;;;;;;;17.94;100.00;100308.03;12201092;19;20033;-85
2023/08/10 07:30:45;;;;;;;;;;;;;;;18.13;100.00;100309.03;12179802;19;20086;-85
2023/08/10 07:34:47;;;;;;;;;;;;;;;18.38;100.00;100307.19;12193229;19;20303;-84
2023/08/10 07:38:49;;;;;;;8.65;3.50;;;;;;;18.63;100.00;100311.75;12244223;19;20722;-82
2023/08/10 07:42:51;;;;;;;4.85;2.95;;;;;;;18.83;100.00;100308.84;12245586;19;19998;-82
2023/08/10 07:46:54;;;;;;;6.03;3.03;;;;;;;19.11;100.00;100323.09;12222254;19;20054;-83
2023/08/10 07:50:57;;;;;;;7.10;3.25;;;;;;;19.28;100.00;100311.47;12236007;19;20006;-83
2023/08/10 07:54:58;;;;;;;;;;;;;;;19.43;100.00;100304.88;12201380;19;20049;-81
2023/08/10 07:59:00;;;;;;;4.47;2.30;;;;;;;19.75;100.00;100312.63;12176663;19;19906;-84
2023/08/10 08:03:02;;;;;;;10.27;3.13;;;;;;;19.96;100.00;100316.00;12201881;19;20023;-82
2023/08/10 08:07:04;;;;;;;8.17;3.73;;;;;;;20.15;100.00;100313.22;12185851;19;20027;-83
2023/08/10 08:11:06;;;;;;;7.13;2.83;;;;;;;20.18;100.00;100316.25;12200756;19;21333;-82
2023/08/10 08:15:08;;;;;;;3.97;2.47;;;;;;;20.13;100.00;100318.28;12198921;19;20027;-83
2023/08/10 08:19:10;;;;;;;;;;;;;;;20.15;100.00;100307.63;12177748;19;20086;-82
2023/08/10 08:23:12;;;;;;;6.88;2.35;;;;;;;20.39;100.00;100304.75;12197614;19;19915;-82
2023/08/10 08:27:13;;;;;;;3.97;2.70;;;;;;;20.58;100.00;100301.94;12198167;19;20553;-82
2023/08/10 08:31:16;;;;;;;4.43;2.73;;;;;;;20.69;98.68;100303.44;12185229;19;20039;-81
2023/08/10 08:35:18;;;;;;;6.93;2.50;;;;;;;20.41;99.38;100300.50;12196012;19;20019;-82
2023/08/10 08:39:19;;;;;;;4.23;2.50;;;;;;;20.25;99.43;100308.28;12192494;19;20019;-82
2023/08/10 08:43:22;;;;;;;6.33;3.10;;;;;;;20.36;98.62;100308.97;12175305;19;20079;-82
2023/08/10 08:47:25;;;;;;;7.00;2.30;;;;;;;20.47;97.03;100304.06;12198681;19;20043;-82
2023/08/10 08:51:27;;;;;;;4.85;3.08;;;;;;;20.65;94.53;100313.59;12206409;19;20476;-82
2023/08/10 08:55:29;;;;;;;6.03;2.95;;;;;;;20.94;93.17;100311.44;12174764;19;20680;-82
2023/08/10 08:59:31;;;;;;;;;;;;;;;20.88;93.88;100307.06;12195452;19;20022;-83
2023/08/10 09:03:33;;;;;;;4.10;2.65;;;;;;;20.94;88.20;100297.41;12197320;19;19918;-82
2023/08/10 09:07:35;;;;;;;4.28;2.63;;;;;;;21.03;87.58;100293.88;12177576;19;20446;-83
2023/08/10 09:11:37;;;;;;;5.05;2.80;;;;;;;21.33;87.41;100281.28;12197634;19;20015;-82
2023/08/10 09:15:39;;;;;;;3.20;2.38;;;;;;;21.66;84.12;100284.84;12197248;19;20538;-82
2023/08/10 09:19:42;;;;;;;5.97;2.63;;;;;;;21.91;80.84;100280.66;12175139;19;20011;-83
2023/08/10 09:23:51;;;;;;;3.92;1.70;;;;;;;22.11;74.92;100278.56;12211320;19;20255;-83
2023/08/10 09:27:54;;;;;;;3.55;1.88;;;;;;;22.32;72.60;100274.16;12211994;19;20027;-83
2023/08/10 09:31:58;;;;;;;;;;;;;;;22.38;70.66;100258.00;12193784;19;20121;-83
2023/08/10 09:36:04;;;;;;;7.00;1.70;;;;;;;22.34;70.69;100268.19;12225772;19;20012;-84
2023/08/10 09:40:10;;;;;;;3.63;2.25;;;;;;;22.26;69.07;100267.81;12184683;19;20022;-84
2023/08/10 09:44:12;;;;;;;4.90;2.17;;;;;;;22.22;66.85;100257.53;12214234;19;20042;-83
2023/08/10 09:48:13;;;;;;;6.07;2.37;;;;;;;22.28;69.62;100254.31;12210721;19;20082;-84
2023/08/10 09:52:15;;;;;;;3.23;2.07;;;;;;;22.60;68.78;100252.38;12191735;19;20010;-82
2023/08/10 09:56:17;;;;;;;2.93;2.00;;;;;;;22.92;64.19;100239.22;12208537;19;20007;-82
2023/08/10 10:00:21;;;;;;;3.97;2.00;;;;;;;23.07;60.34;100233.19;12208858;19;21038;-83
2023/08/10 10:04:23;;;;;;;3.13;1.80;;;;;;;23.09;61.02;100235.69;12189763;19;20090;-83
2023/08/10 10:08:26;;;;;;;;;;;;;;;23.31;58.16;100243.22;12206953;19;20863;-83
2023/08/10 10:12:31;;;;;;;4.45;1.83;;;;;;;23.65;54.17;100242.53;12210159;19;19986;-83
2023/08/10 10:16:34;;;;;;;3.72;1.63;;;;;;;23.98;52.51;100245.75;12181324;19;20003;-83
2023/08/10 10:20:39;;;;;;;4.80;1.75;;;;;;;23.98;51.70;100240.13;12208271;19;20099;-84
2023/08/10 10:24:42;;;;;;;3.85;2.08;;;;;;;24.13;51.50;100238.00;12213418;19;20022;-83
2023/08/10 10:29:14;;;;;;;5.95;2.10;;;;;;;24.40;50.58;100234.00;12190448;19;20122;-84
2023/08/10 10:33:16;;;;;;;5.93;2.08;;;;;;;24.38;51.09;100222.22;12208121;19;20010;-83
2023/08/10 10:37:26;;;;;;;3.60;2.03;;;;;;;24.37;51.15;100214.97;12188868;19;20006;-83
2023/08/10 10:41:35;;;;;;;4.70;1.83;;;;;;;24.68;49.21;100220.41;12206748;19;20074;-83
2023/08/10 10:45:42;;;;;;;6.45;1.92;;;;;;;24.91;48.55;100215.38;12208317;19;20027;-83
2023/08/10 10:49:54;;;;;;;3.63;2.10;;;;;;;25.11;47.57;100217.47;12187329;19;20006;-83
2023/08/10 10:53:57;;;;;;;5.15;2.85;;;;;;;25.33;48.54;100202.28;12207886;19;20370;-82
2023/08/10 10:58:00;;;;;;;2.70;1.80;;;;;;;25.43;47.52;100206.72;12205652;19;20006;-83
2023/08/10 11:02:03;;;;;;;9.15;2.10;;;;;;;25.38;47.24;100202.09;12181146;19;20077;-84
2023/08/10 11:06:12;;;;;;;2.40;1.75;;;;;;;25.34;46.75;100206.75;12206736;19;20003;-84
2023/08/10 11:10:16;;;;;;;4.35;2.13;;;;;;;25.18;47.24;100200.84;12187664;19;20021;-83
2023/08/10 11:14:17;;;;;;;2.92;2.00;;;;;;;25.10;47.23;100190.41;12203705;19;20014;-83
2023/08/10 11:18:19;;;;;;;5.80;2.15;;;;;;;25.21;47.77;100197.38;12204656;19;20041;-84
2023/08/10 11:22:22;;;;;;;3.45;1.83;;;;;;;25.50;47.41;100187.25;12189689;19;20077;-83
2023/08/10 11:26:23;;;;;;;2.85;2.10;;;;;;;25.50;47.52;100184.44;12207055;19;20391;-83
2023/08/10 11:30:26;;;;;;;3.50;1.95;;;;;;;25.67;48.16;100180.66;12211111;19;20437;-83
2023/08/10 11:34:29;;;;;;;2.92;1.98;;;;;;;25.84;47.34;100186.22;12189474;19;20015;-83
2023/08/10 11:38:46;;;;;;;4.97;3.35;;;;;;;25.72;43.63;100174.81;12205960;19;20024;-83
2023/08/10 11:43:02;;;;;;;2.97;1.60;;;;;;;25.67;44.11;100175.88;12207046;19;20009;-83
2023/08/10 11:47:04;;;;;;;3.63;1.75;;;;;;;25.85;43.31;100182.25;12187549;19;20023;-84
2023/08/10 11:51:07;;;;;;;4.68;1.95;;;;;;;26.47;44.77;100176.88;12209689;19;20092;-83
2023/08/10 11:55:13;;;;;;;;;;;;;;;27.33;44.23;100171.41;12187717;19;20028;-83
2023/08/10 11:59:14;;;;;;;2.67;1.77;;;;;;;27.75;40.67;100171.94;12207888;19;19935;-83
2023/08/10 12:03:22;;;;;;;2.58;1.90;;;;;;;28.56;39.49;100169.94;12205022;19;20006;-83
2023/08/10 12:07:34;;;;;;;3.75;2.03;;;;;;;29.23;36.11;100177.78;12189165;19;20014;-83
2023/08/10 12:11:37;;;;;;;4.75;1.88;;;;;;;29.75;35.74;100177.47;12215308;19;20019;-82
2023/08/10 12:15:50;;;;;;;4.00;2.38;;;;;;;30.09;34.89;100162.78;12207637;19;20069;-83
2023/08/10 12:19:53;;;;;;;3.38;1.90;;;;;;;30.28;35.55;100167.66;12183654;19;20022;-83
2023/08/10 12:24:03;;;;;;;;;;;;;;;30.59;36.81;100169.50;12197765;19;20050;-84
2023/08/10 12:28:07;;;;;;;3.33;2.38;;;;;;;30.86;34.33;100159.06;12187533;19;19921;-84
2023/08/10 12:32:10;;;;;;;6.15;2.45;;;;;;;31.52;33.69;100156.94;12217051;19;20010;-84
2023/08/10 12:36:13;;;;;;;4.18;2.50;;;;;;;32.06;31.50;100163.41;12207688;19;20010;-84
2023/08/10 12:40:16;;;;;;;4.57;2.22;;;;;;;31.74;33.53;100167.44;12173796;19;20118;-84
2023/08/10 12:44:18;;;;;;;3.63;2.45;;;;;;;32.13;30.79;100161.50;12203955;19;20584;-83
2023/08/10 12:48:20;;;;;;;3.92;2.03;;;;;;;32.52;30.58;100169.72;12208428;19;20011;-84
2023/08/10 12:52:22;;;;;;;3.22;2.20;;;;;;;32.74;29.26;100172.78;12186626;19;20017;-83
2023/08/10 12:56:23;;;;;;;3.47;2.25;;;;;;;33.27;27.86;100173.31;12211261;19;20018;-84
2023/08/10 13:00:26;;;;;;;3.22;2.25;;;;;;;33.83;28.00;100156.19;12211930;19;20522;-85
2023/08/10 13:04:27;;;;;;;3.45;2.28;;;;;;;34.02;26.42;100161.59;12195085;19;20095;-84
2023/08/10 13:08:29;;;;;;;3.78;2.15;;;;;;;34.16;26.29;100146.56;12215100;19;20011;-85
2023/08/10 13:12:31;;;;;;;3.17;2.17;;;;;;;34.37;25.44;100160.13;12223812;19;20010;-85
2023/08/10 13:16:34;;;;;;;3.45;1.90;;;;;;;34.88;25.62;100156.19;12206098;19;20030;-83
2023/08/10 13:20:36;;;;;;;5.65;2.53;;;;;;;35.62;24.73;100159.50;12230664;19;20007;-84
2023/08/10 13:24:39;;;;;;;2.80;2.20;;;;;;;35.92;24.18;100156.13;12222674;19;20015;-84
2023/08/10 13:28:40;;;;;;;4.20;2.10;;;;;;;36.37;23.50;100165.00;12198207;19;20030;-84
2023/08/10 13:32:42;;;;;;;3.05;2.20;;;;;;;36.45;23.03;100163.72;12225392;19;20018;-84
2023/08/10 13:36:44;;;;;;;2.95;2.33;;;;;;;36.61;23.09;100163.25;12220670;19;20529;-83
2023/08/10 13:40:46;;;;;;;4.13;2.10;;;;;;;36.59;23.31;100154.22;12192795;19;20066;-82
2023/08/10 13:44:48;;;;;;;2.38;1.90;;;;;;;37.00;22.64;100160.13;12221142;19;20011;-85
2023/08/10 13:48:49;;;;;;;3.05;2.15;;;;;;;37.01;21.90;100156.03;12220309;19;20179;-83
2023/08/10 13:52:52;;;;;;;3.40;1.67;;;;;;;37.77;21.41;100156.97;12205746;19;20079;-83
2023/08/10 13:57:01;;;;;;;3.65;2.08;;;;;;;37.79;22.39;100156.56;12221779;19;20032;-85
2023/08/10 14:01:07;;;;;;;2.38;1.80;;;;;;;37.72;21.25;100145.94;12199270;19;20042;-84
2023/08/10 14:05:12;;;;;;;3.45;1.85;;;;;;;38.14;21.51;100149.59;12217093;19;20007;-84
2023/08/10 14:09:16;;;;;;;2.80;2.13;;;;;;;38.57;21.24;100146.16;12216782;19;20023;-84
2023/08/10 14:13:18;;;;;;;2.35;1.73;;;;;;;38.49;20.29;100139.69;12210273;19;20280;-84
2023/08/10 14:17:20;;;;;;;2.55;1.67;;;;;;;37.98;21.61;100138.66;12262608;19;20430;-83
2023/08/10 14:21:21;;;;;;;2.35;1.70;;;;;;;36.98;21.81;100133.06;12221583;19;20014;-84
2023/08/10 14:25:25;;;;;;;3.78;2.10;;;;;;;35.74;22.71;100133.25;12196274;19;20030;-82
2023/08/10 14:29:27;;;;;;;3.75;2.28;;;;;;;34.11;23.62;100136.31;12203193;19;20019;-83
2023/08/10 14:33:28;;;;;;;2.38;1.75;;;;;;;32.54;25.66;100135.09;12212293;19;20002;-83
2023/08/10 14:37:30;;;;;;;2.88;1.92;;;;;;;31.11;27.06;100142.41;12187152;19;20360;-84
2023/08/10 14:41:32;;;;;;;3.60;1.92;;;;;;;29.95;28.88;100147.06;12208776;19;20018;-85
2023/08/10 14:45:35;;;;;;;4.95;2.20;;;;;;;29.08;30.96;100145.41;12212742;19;20015;-84
2023/08/10 14:49:55;;;;;;;3.53;1.63;;;;;;;28.75;30.97;100137.22;12188467;19;20050;-84
2023/08/10 14:53:57;;;;;;;5.28;1.90;;;;;;;28.63;30.08;100138.13;12213545;19;19998;-82
2023/08/10 14:57:58;;;;;;;3.38;1.85;;;;;;;28.70;30.19;100123.31;12212772;19;20071;-83
2023/08/10 15:02:00;;;;;;;4.40;1.85;;;;;;;28.15;30.79;100123.81;12190362;19;20006;-83
2023/08/10 15:06:06;;;;;;;4.97;1.90;;;;;;;27.70;31.95;100124.91;12214250;19;20034;-83
2023/08/10 15:10:11;;;;;;;5.00;1.90;;;;;;;27.11;33.06;100125.41;12189832;19;20015;-84
2023/08/10 15:14:13;;;;;;;5.53;2.10;;;;;;;26.75;33.53;100121.41;12213534;19;20011;-83
2023/08/10 15:18:15;;;;;;;;;;;;;;;26.45;33.08;100119.91;12207576;19;20017;-83
2023/08/10 15:22:17;;;;;;;6.15;1.83;;;;;;;26.22;33.66;100122.28;12189469;19;19927;-83
2023/08/10 15:26:19;;;;;;;3.30;2.00;;;;;;;26.11;34.18;100121.88;12207395;19;20011;-83
2023/08/10 15:30:21;;;;;;;4.05;1.92;;;;;;;26.27;33.75;100111.59;12210631;19;20494;-84
2023/08/10 15:34:24;;;;;;;3.70;2.20;;;;;;;26.75;34.23;100110.09;12188195;19;20390;-84
2023/08/10 15:38:26;;;;;;;4.85;2.00;;;;;;;26.58;33.90;100118.78;12208966;19;20074;-83
2023/08/10 15:42:28;;;;;;;;;;;;;;;26.39;34.45;100101.53;12209607;19;20350;-83
2023/08/10 15:46:30;;;;;;;3.13;1.90;;;;;;;27.24;34.09;100101.63;12184473;19;20419;-85
2023/08/10 15:50:32;;;;;;;3.10;1.80;;;;;;;28.11;33.20;100103.09;12207379;19;20489;-83
2023/08/10 15:54:34;;;;;;;3.38;1.90;;;;;;;28.14;32.91;100099.53;12209234;19;20022;-83
2023/08/10 15:58:35;;;;;;;4.32;2.35;;;;;;;28.43;33.27;100106.00;12185524;19;20058;-83
2023/08/10 16:02:40;;;;;;;3.55;1.90;;;;;;;27.94;33.08;100106.22;12212514;19;20015;-88
2023/08/10 16:06:45;;;;;;;3.47;1.98;;;;;;;27.35;34.38;100101.16;12211849;19;20361;-86
2023/08/10 16:10:58;;;;;;;3.45;2.13;;;;;;;26.86;34.88;100103.94;12195069;19;20026;-87
2023/08/10 16:15:00;;;;;;;2.58;1.73;;;;;;;26.49;35.05;100098.22;12209434;19;20010;-86
2023/08/10 16:19:02;;;;;;;4.65;2.03;;;;;;;26.29;35.21;100092.28;12190360;19;20003;-83
2023/08/10 16:23:05;;;;;;;4.20;1.65;;;;;;;26.18;35.36;100098.75;12206559;19;20014;-84
2023/08/10 16:27:08;;;;;;;4.40;2.00;;;;;;;26.08;36.21;100094.34;12208970;19;20018;-83
2023/08/10 16:31:10;;;;;;;4.55;1.98;;;;;;;25.81;37.51;100102.19;12194608;19;20018;-85
2023/08/10 16:35:12;;;;;;;3.33;1.83;;;;;;;25.65;37.81;100092.72;12220104;19;20055;-84
2023/08/10 16:39:14;;;;;;;4.00;2.00;;;;;;;25.47;37.79;100103.31;12214037;19;20658;-84
2023/08/10 16:43:16;;;;;;;9.02;2.22;;;;;;;25.28;38.40;100100.94;12190257;19;20256;-83
2023/08/10 16:47:18;;;;;;;4.78;1.95;;;;;;;25.19;38.52;100105.81;12212458;19;20860;-83
2023/08/10 16:51:19;;;;;;;4.87;2.00;;;;;;;25.14;38.64;100111.66;12222251;19;20010;-83
2023/08/10 16:55:21;;;;;;;3.55;2.08;;;;;;;25.09;39.19;100103.34;12198374;19;20474;-84
2023/08/10 16:59:23;;;;;;;4.63;1.98;;;;;;;25.03;39.22;100108.34;12214685;19;20010;-84
2023/08/10 17:03:25;;;;;;;5.93;2.25;;;;;;;24.98;39.50;100112.19;12219172;19;20011;-84
2023/08/10 17:07:27;;;;;;;4.05;1.95;;;;;;;24.99;40.30;100116.69;12197008;19;20006;-83
2023/08/10 17:11:30;;;;;;;3.95;2.00;;;;;;;25.01;40.47;100114.31;12212089;19;21489;-85
2023/08/10 17:15:32;;;;;;;3.22;1.60;;;;;;;24.92;39.96;100112.72;12208735;19;20027;-86
2023/08/10 17:19:34;;;;;;;5.65;2.22;;;;;;;24.78;41.07;100113.78;12189775;19;20021;-82
2023/08/10 17:23:36;;;;;;;4.00;1.60;;;;;;;24.69;41.31;100123.41;12209959;19;20425;-82
2023/08/10 17:27:38;;;;;;;4.32;2.00;;;;;;;24.57;41.37;100118.50;12206167;19;20694;-84
2023/08/10 17:31:40;;;;;;;5.73;2.00;;;;;;;24.52;41.97;100124.31;12191991;19;20006;-83
2023/08/10 17:35:41;;;;;;;4.43;2.10;;;;;;;24.39;44.03;100123.34;12212061;19;20358;-84
2023/08/10 17:39:43;;;;;;;3.65;2.10;;;;;;;24.26;43.68;100121.53;12208269;19;20026;-83
2023/08/10 17:43:45;;;;;;;4.50;1.98;;;;;;;24.11;44.58;100120.06;12186634;19;20010;-83
2023/08/10 17:47:47;;;;;;;6.40;2.22;;;;;;;24.00;46.23;100115.94;12203798;19;20082;-83
2023/08/10 17:51:52;;;;;;;7.82;2.13;;;;;;;23.88;46.48;100128.72;12219643;19;20454;-83
2023/08/10 17:55:55;;;;;;;5.72;2.05;;;;;;;23.74;49.00;100118.78;12197116;19;20502;-83
2023/08/10 17:59:59;;;;;;;8.18;2.40;;;;;;;23.61;49.58;100120.53;12216800;19;20022;-83
2023/08/10 18:04:01;;;;;;;5.28;2.38;;;;;;;23.49;52.14;100118.38;12257825;19;20013;-83
2023/08/10 18:08:04;;;;;;;5.82;2.92;;;;;;;23.40;53.24;100118.34;12239870;19;20025;-83
2023/08/10 18:12:06;;;;;;;3.17;2.10;;;;;;;23.18;55.37;100132.56;12223624;19;20007;-83
2023/08/10 18:16:08;;;;;;;8.02;3.17;;;;;;;22.91;56.85;100116.72;12194595;19;20006;-83
2023/08/10 18:20:10;;;;;;;7.60;2.60;;;;;;;22.64;58.55;100115.78;12215784;19;20010;-83
2023/08/10 18:24:12;;;;;;;6.10;2.17;;;;;;;22.39;59.46;100114.50;12216885;19;20756;-83
2023/08/10 18:28:14;;;;;;;4.97;2.10;;;;;;;22.17;61.55;100120.97;12195954;19;20081;-83
2023/08/10 18:32:16;;;;;;;8.90;2.43;;;;;;;21.96;62.51;100117.81;12218798;19;20003;-83
2023/08/10 18:36:18;;;;;;;6.75;2.30;;;;;;;21.73;64.45;100125.38;12215009;19;20713;-83